createdAt,value
2018-10-11T00:02:00.784Z,4.50
2018-10-11T00:04:27.824Z,4.50
2018-10-11T00:06:55.241Z,4.60
2018-10-11T00:09:22.658Z,4.70
2018-10-11T00:11:49.700Z,5.60
2018-10-11T00:14:16.765Z,5.30
2018-10-11T00:16:44.127Z,5.30
2018-10-11T00:19:11.177Z,4.73
2018-10-11T00:21:38.904Z,5.50
2018-10-11T00:24:06.047Z,5.00
2018-10-11T00:26:33.100Z,4.53
2018-10-11T00:29:00.154Z,4.80
2018-10-11T00:31:27.672Z,4.57
2018-10-11T00:33:54.726Z,5.13
2018-10-11T00:36:21.816Z,4.90
2018-10-11T00:38:49.242Z,5.20
2018-10-11T00:41:16.300Z,5.50
2018-10-11T00:43:43.349Z,5.37
2018-10-11T00:46:10.412Z,5.07
2018-10-11T00:48:37.952Z,5.00
2018-10-11T00:51:05.136Z,5.00
2018-10-11T00:53:32.481Z,4.63
2018-10-11T00:55:59.537Z,4.63
2018-10-11T00:58:26.588Z,5.40
2018-10-11T01:00:53.952Z,5.03
2018-10-11T01:03:21.001Z,5.17
2018-10-11T01:05:48.054Z,5.20
2018-10-11T01:08:15.444Z,4.67
2018-10-11T01:10:42.489Z,5.13
2018-10-11T01:13:09.545Z,5.07
2018-10-11T01:15:36.778Z,4.80
2018-10-11T01:18:03.824Z,5.30
2018-10-11T01:20:30.953Z,5.07
2018-10-11T01:22:58.348Z,6.17
2018-10-11T01:25:25.408Z,4.90
2018-10-11T01:27:52.451Z,5.10
2018-10-11T01:30:19.541Z,5.70
2018-10-11T01:32:46.600Z,5.33
2018-10-11T01:35:13.640Z,4.97
2018-10-11T01:37:40.803Z,5.47
2018-10-11T01:40:07.873Z,6.47
2018-10-11T01:42:34.974Z,5.97
2018-10-11T01:45:02.045Z,5.50
2018-10-11T01:47:29.089Z,6.07
2018-10-11T01:49:56.144Z,5.60
2018-10-11T01:52:23.704Z,5.43
2018-10-11T01:54:50.747Z,5.40
2018-10-11T01:57:17.810Z,4.83
2018-10-11T01:59:45.068Z,5.30
2018-10-11T02:02:12.124Z,5.60
2018-10-11T02:04:39.170Z,5.47
2018-10-11T02:07:06.840Z,5.10
2018-10-11T02:09:36.094Z,5.80
2018-10-11T02:12:03.104Z,5.63
2018-10-11T02:14:30.150Z,5.27
2018-10-11T02:16:57.232Z,4.80
2018-10-11T02:19:24.277Z,5.77
2018-10-11T02:21:51.309Z,5.20
2018-10-11T02:24:18.352Z,5.27
2018-10-11T02:26:45.412Z,4.57
2018-10-11T02:29:12.608Z,5.67
2018-10-11T02:31:39.636Z,6.43
2018-10-11T02:34:06.684Z,5.37
2018-10-11T02:36:34.038Z,5.67
2018-10-11T02:39:01.077Z,5.13
2018-10-11T02:41:28.112Z,5.70
2018-10-11T02:43:55.468Z,5.40
2018-10-11T02:46:22.513Z,5.07
2018-10-11T02:48:49.572Z,5.47
2018-10-11T02:51:16.640Z,5.70
2018-10-11T02:53:43.705Z,5.03
2018-10-11T02:56:10.788Z,5.30
2018-10-11T02:58:50.206Z,5.67
2018-10-11T03:01:17.266Z,5.83
2018-10-11T03:03:44.344Z,5.80
2018-10-11T03:06:11.424Z,5.80
2018-10-11T03:08:38.484Z,5.93
2018-10-11T03:11:07.637Z,4.93
2018-10-11T03:13:35.085Z,5.13
2018-10-11T03:16:02.128Z,5.23
2018-10-11T03:18:29.164Z,5.50
2018-10-11T03:20:56.544Z,5.57
2018-10-11T03:23:23.584Z,5.10
2018-10-11T03:25:50.615Z,5.63
2018-10-11T03:28:17.676Z,5.57
2018-10-11T03:30:44.725Z,5.73
2018-10-11T03:33:12.792Z,6.10
2018-10-11T03:35:41.118Z,5.20
2018-10-11T03:38:08.149Z,5.07
2018-10-11T03:40:35.193Z,5.10
2018-10-11T03:43:02.282Z,5.90
2018-10-11T03:45:29.316Z,5.33
2018-10-11T03:47:56.368Z,6.37
2018-10-11T03:50:24.061Z,5.67
2018-10-11T03:52:51.095Z,6.00
2018-10-11T03:55:18.148Z,7.00
2018-10-11T03:57:45.208Z,5.73
2018-10-11T04:00:12.257Z,6.17
2018-10-11T04:02:39.585Z,5.80
2018-10-11T04:05:06.989Z,5.70
2018-10-11T04:07:34.086Z,6.03
2018-10-11T04:10:01.085Z,6.00
2018-10-11T04:12:28.354Z,6.23
2018-10-11T04:14:55.427Z,5.37
2018-10-11T04:17:22.477Z,5.67
2018-10-11T04:19:49.540Z,6.00
2018-10-11T04:22:16.592Z,6.77
2018-10-11T04:24:43.641Z,6.27
2018-10-11T04:27:10.743Z,6.30
2018-10-11T04:29:37.772Z,5.60
2018-10-11T04:32:04.844Z,5.37
2018-10-11T04:34:32.346Z,5.90
2018-10-11T04:36:59.388Z,6.07
2018-10-11T04:39:26.452Z,5.80
2018-10-11T04:41:54.119Z,5.97
2018-10-11T04:44:21.158Z,6.10
2018-10-11T04:46:48.196Z,6.47
2018-10-11T04:49:15.236Z,8.67
2018-10-11T04:51:42.842Z,8.53
2018-10-11T04:54:09.899Z,8.10
2018-10-11T04:56:37.041Z,10.17
2018-10-11T04:59:04.148Z,10.53
2018-10-11T05:01:31.183Z,10.77
2018-10-11T05:03:58.512Z,10.83
2018-10-11T05:06:25.556Z,11.13
2018-10-11T05:08:52.608Z,12.33
2018-10-11T05:11:19.660Z,12.07
2018-10-11T05:13:48.324Z,12.37
2018-10-11T05:16:15.953Z,13.03
2018-10-11T05:18:43.803Z,11.10
2018-10-11T05:21:10.868Z,10.70
2018-10-11T05:23:37.917Z,11.33
2018-10-11T05:26:05.099Z,11.03
2018-10-11T05:28:32.293Z,10.40
2018-10-11T05:30:59.370Z,12.73
2018-10-11T05:33:26.841Z,10.93
2018-10-11T05:35:54.365Z,10.23
2018-10-11T05:38:21.487Z,9.80
2018-10-11T05:40:48.489Z,9.97
2018-10-11T05:43:15.557Z,10.33
2018-10-11T05:45:47.247Z,9.83
2018-10-11T05:48:14.336Z,8.93
2018-10-11T05:50:42.281Z,9.93
2018-10-11T05:53:09.369Z,8.77
2018-10-11T05:55:36.762Z,8.00
2018-10-11T05:58:04.028Z,7.70
2018-10-11T06:00:31.104Z,9.43
2018-10-11T06:03:00.933Z,8.20
2018-10-11T06:05:28.836Z,8.73
2018-10-11T06:07:56.244Z,8.73
2018-10-11T06:10:25.640Z,9.13
2018-10-11T06:12:52.688Z,7.90
2018-10-11T06:15:19.772Z,7.83
2018-10-11T06:17:47.486Z,7.70
2018-10-11T06:20:14.476Z,8.00
2018-10-11T06:22:41.580Z,8.13
2018-10-11T06:25:09.053Z,8.23
2018-10-11T06:27:36.120Z,7.47
2018-10-11T06:30:03.193Z,7.27
2018-10-11T06:32:31.490Z,7.07
2018-10-11T06:34:59.131Z,6.47
2018-10-11T06:37:26.686Z,7.97
2018-10-11T06:39:54.265Z,7.63
2018-10-11T06:42:21.448Z,6.73
2018-10-11T06:44:48.485Z,6.77
2018-10-11T06:47:16.944Z,6.20
2018-10-11T06:49:44.048Z,6.20
2018-10-11T06:52:11.332Z,7.30
2018-10-11T06:54:38.733Z,6.47
2018-10-11T06:57:06.100Z,6.37
2018-10-11T06:59:33.152Z,7.13
2018-10-11T07:02:00.193Z,5.43
2018-10-11T07:04:27.264Z,6.27
2018-10-11T07:06:54.319Z,5.90
2018-10-11T07:09:21.373Z,6.60
2018-10-11T07:11:48.429Z,5.70
2018-10-11T07:14:15.485Z,6.00
2018-10-11T07:16:42.877Z,5.23
2018-10-11T07:19:09.957Z,5.57
2018-10-11T07:21:36.996Z,5.43
2018-10-11T07:24:04.499Z,6.10
2018-10-11T07:26:31.540Z,5.40
2018-10-11T07:28:59.050Z,4.97
2018-10-11T07:31:26.102Z,5.73
2018-10-11T07:33:53.147Z,4.63
2018-10-11T07:36:20.201Z,5.37
2018-10-11T07:38:47.253Z,6.07
2018-10-11T07:41:14.354Z,5.50
2018-10-11T07:43:41.398Z,5.20
2018-10-11T07:46:08.457Z,5.83
2018-10-11T07:48:35.525Z,5.10
2018-10-11T07:51:02.564Z,5.03
2018-10-11T07:53:29.954Z,4.63
2018-10-11T07:55:57.000Z,4.57
2018-10-11T07:58:24.052Z,4.67
2018-10-11T08:00:51.419Z,4.30
2018-10-11T08:03:18.527Z,5.03
2018-10-11T08:05:45.545Z,4.80
2018-10-11T08:08:12.641Z,4.33
2018-10-11T08:10:39.810Z,4.33
2018-10-11T08:13:06.740Z,4.57
2018-10-11T08:15:34.060Z,5.20
2018-10-11T08:18:01.593Z,4.43
2018-10-11T08:20:28.390Z,5.23
2018-10-11T08:22:55.430Z,4.57
2018-10-11T08:25:22.808Z,4.40
2018-10-11T08:27:49.546Z,5.13
2018-10-11T08:30:16.605Z,4.40
2018-10-11T08:32:43.782Z,4.00
2018-10-11T08:35:10.727Z,3.87
2018-10-11T08:37:37.880Z,4.53
2018-10-11T08:40:04.854Z,3.97
2018-10-11T08:42:32.004Z,3.83
2018-10-11T08:44:59.409Z,4.30
2018-10-11T08:47:26.617Z,5.17
2018-10-11T08:49:53.671Z,3.83
2018-10-11T08:52:21.178Z,4.10
2018-10-11T08:54:49.524Z,4.40
2018-10-11T08:57:17.016Z,3.97
2018-10-11T08:59:44.293Z,3.63
2018-10-11T09:02:11.317Z,3.80
2018-10-11T09:04:38.356Z,3.60
2018-10-11T09:07:05.853Z,3.77
2018-10-11T09:09:32.934Z,3.77
2018-10-11T09:11:59.961Z,3.97
2018-10-11T09:14:27.211Z,3.60
2018-10-11T09:16:54.261Z,4.87
2018-10-11T09:19:23.152Z,3.53
2018-10-11T09:21:50.248Z,3.70
2018-10-11T09:24:17.290Z,3.83
2018-10-11T09:26:44.324Z,3.33
2018-10-11T09:29:11.691Z,4.13
2018-10-11T09:31:38.752Z,3.90
2018-10-11T09:34:06.055Z,3.53
2018-10-11T09:36:33.209Z,3.33
2018-10-11T09:39:00.216Z,3.23
2018-10-11T09:41:27.258Z,3.20
2018-10-11T09:43:54.713Z,3.43
2018-10-11T09:46:21.764Z,3.37
2018-10-11T09:48:48.864Z,3.00
2018-10-11T09:51:15.863Z,2.60
2018-10-11T09:53:42.959Z,3.73
2018-10-11T09:56:10.014Z,2.90
2018-10-11T09:58:37.099Z,2.77
2018-10-11T10:02:07.668Z,3.23
2018-10-11T10:04:34.661Z,3.17
2018-10-11T10:07:01.724Z,3.10
2018-10-11T10:09:28.769Z,2.83
2018-10-11T10:11:55.956Z,3.10
2018-10-11T10:14:23.018Z,2.97
2018-10-11T10:16:50.074Z,2.37
2018-10-11T10:19:17.388Z,2.77
2018-10-11T10:21:44.527Z,3.30
2018-10-11T10:24:11.537Z,2.57
2018-10-11T10:26:38.942Z,2.33
2018-10-11T10:29:05.937Z,2.50
2018-10-11T10:31:32.984Z,2.70
2018-10-11T10:34:00.507Z,2.57
2018-10-11T10:36:27.505Z,2.67
2018-10-11T10:38:54.540Z,2.70
2018-10-11T10:41:21.619Z,2.73
2018-10-11T10:43:48.668Z,2.60
2018-10-11T10:46:15.725Z,2.70
2018-10-11T10:48:43.095Z,2.87
2018-10-11T10:51:10.124Z,2.77
2018-10-11T10:53:37.178Z,2.30
2018-10-11T10:56:04.249Z,2.40
2018-10-11T10:58:31.298Z,2.93
2018-10-11T11:00:58.354Z,2.30
2018-10-11T11:03:25.814Z,2.50
2018-10-11T11:05:52.860Z,2.47
2018-10-11T11:08:19.897Z,2.63
2018-10-11T11:10:46.949Z,2.60
2018-10-11T11:13:14.030Z,2.90
2018-10-11T11:15:41.198Z,2.30
2018-10-11T11:18:08.496Z,3.13
2018-10-11T11:20:35.548Z,2.10
2018-10-11T11:23:02.608Z,2.30
2018-10-11T11:25:29.824Z,2.40
2018-10-11T11:27:56.877Z,2.47
2018-10-11T11:30:23.917Z,2.27
2018-10-11T11:32:52.704Z,2.20
2018-10-11T11:35:19.749Z,2.60
2018-10-11T11:37:47.721Z,1.80
2018-10-11T11:40:14.768Z,1.63
2018-10-11T11:42:41.838Z,2.50
2018-10-11T11:45:08.876Z,2.20
2018-10-11T11:47:35.937Z,2.23
2018-10-11T11:50:03.000Z,2.30
2018-10-11T11:52:30.049Z,2.00
2018-10-11T11:54:57.416Z,1.93
2018-10-11T11:57:24.452Z,2.57
2018-10-11T11:59:51.488Z,1.60
2018-10-11T12:02:18.867Z,1.87
2018-10-11T12:04:45.856Z,2.43
2018-10-11T12:07:12.910Z,1.40
2018-10-11T12:09:40.140Z,1.97
2018-10-11T12:12:07.225Z,2.23
2018-10-11T12:14:34.260Z,1.63
2018-10-11T12:17:01.820Z,1.60
2018-10-11T12:19:28.872Z,1.50
2018-10-11T12:21:55.975Z,1.53
2018-10-11T12:24:23.488Z,1.60
2018-10-11T12:26:50.542Z,1.37
2018-10-11T12:29:17.581Z,1.47
2018-10-11T12:31:45.079Z,1.30
2018-10-11T12:34:12.112Z,1.40
2018-10-11T12:36:39.169Z,1.30
2018-10-11T12:39:07.012Z,1.50
2018-10-11T12:41:34.088Z,1.77
2018-10-11T12:44:01.160Z,1.47
2018-10-11T12:46:29.251Z,1.40
2018-10-11T12:48:55.302Z,1.53
2018-10-11T12:51:22.341Z,1.20
2018-10-11T12:53:49.752Z,1.20
2018-10-11T12:56:16.879Z,1.23
2018-10-11T12:58:43.878Z,1.30
2018-10-11T13:01:10.957Z,1.20
2018-10-11T13:03:37.994Z,1.33
2018-10-11T13:06:05.037Z,1.00
2018-10-11T13:08:32.113Z,1.20
2018-10-11T13:10:59.172Z,1.30
2018-10-11T13:13:26.256Z,1.30
2018-10-11T13:15:53.827Z,1.40
2018-10-11T13:18:20.808Z,1.50
2018-10-11T13:20:47.856Z,1.53
2018-10-11T13:23:18.527Z,1.63
2018-10-11T13:25:42.525Z,1.60
2018-10-11T13:28:09.578Z,1.17
2018-10-11T13:30:36.641Z,1.33
2018-10-11T13:33:03.749Z,1.30
2018-10-11T13:35:30.821Z,1.20
2018-10-11T13:37:57.881Z,1.87
2018-10-11T13:40:24.964Z,3.23
2018-10-11T13:42:51.993Z,3.13
2018-10-11T13:45:19.404Z,2.23
2018-10-11T13:47:46.468Z,1.97
2018-10-11T13:50:13.517Z,2.23
2018-10-11T13:52:40.877Z,1.60
2018-10-11T13:55:12.148Z,2.23
2018-10-11T13:57:35.076Z,1.60
2018-10-11T14:00:02.149Z,1.87
2018-10-11T14:02:29.218Z,1.80
2018-10-11T14:04:56.297Z,1.80
2018-10-11T14:07:23.373Z,1.57
2018-10-11T14:09:50.429Z,1.60
2018-10-11T14:12:17.469Z,1.70
2018-10-11T14:14:44.836Z,1.30
2018-10-11T14:17:11.893Z,1.10
2018-10-11T14:19:38.941Z,1.20
2018-10-11T14:22:06.440Z,1.73
2018-10-11T14:24:33.490Z,1.30
2018-10-11T14:27:00.744Z,1.07
2018-10-11T14:29:28.212Z,1.33
2018-10-11T14:31:55.169Z,1.10
2018-10-11T14:34:22.245Z,1.37
2018-10-11T14:36:49.395Z,1.10
2018-10-11T14:39:16.368Z,1.00
2018-10-11T14:41:43.421Z,1.10
2018-10-11T14:44:10.497Z,0.90
2018-10-11T14:46:37.540Z,1.03
2018-10-11T14:49:04.748Z,1.10
2018-10-11T14:51:31.860Z,1.10
2018-10-11T14:53:59.633Z,1.00
2018-10-11T14:56:25.941Z,0.90
2018-10-11T14:58:53.368Z,1.07
2018-10-11T15:01:20.432Z,1.10
2018-10-11T15:03:47.493Z,1.00
2018-10-11T15:06:14.832Z,1.13
2018-10-11T15:08:41.896Z,1.07
2018-10-11T15:11:09.026Z,1.00
2018-10-11T15:13:36.069Z,1.40
2018-10-11T15:16:03.112Z,1.17
2018-10-11T15:18:30.177Z,1.03
2018-10-11T15:20:57.660Z,1.20
2018-10-11T15:23:24.726Z,1.00
2018-10-11T15:25:51.804Z,0.97
2018-10-11T15:28:20.458Z,1.43
2018-10-11T15:30:47.513Z,0.87
2018-10-11T15:33:14.552Z,0.93
2018-10-11T15:35:41.856Z,1.37
2018-10-11T15:38:08.912Z,1.23
2018-10-11T15:40:35.956Z,1.07
2018-10-11T15:43:03.292Z,0.77
2018-10-11T15:45:30.346Z,1.13
2018-10-11T15:47:57.441Z,0.87
2018-10-11T15:50:24.498Z,1.10
2018-10-11T15:52:51.568Z,1.47
2018-10-11T15:55:18.609Z,0.80
2018-10-11T15:57:45.941Z,1.17
2018-10-11T16:00:13.016Z,1.20
2018-10-11T16:02:40.061Z,1.53
2018-10-11T16:05:07.180Z,0.93
2018-10-11T16:07:34.389Z,1.07
2018-10-11T16:10:01.464Z,1.60
2018-10-11T16:12:28.847Z,1.33
2018-10-11T16:14:55.894Z,1.00
2018-10-11T16:17:22.944Z,1.20
2018-10-11T16:19:50.014Z,1.33
2018-10-11T16:22:17.433Z,1.10
2018-10-11T16:24:44.525Z,1.43
2018-10-11T16:27:11.529Z,1.33
2018-10-11T16:29:38.600Z,1.43
2018-10-11T16:32:05.697Z,1.30
2018-10-11T16:34:34.474Z,1.10
2018-10-11T16:37:01.517Z,1.40
2018-10-11T16:39:28.564Z,1.30
2018-10-11T16:41:56.137Z,1.90
2018-10-11T16:44:23.176Z,1.30
2018-10-11T16:46:50.226Z,1.60
2018-10-11T16:49:17.280Z,1.33
2018-10-11T16:51:44.368Z,1.57
2018-10-11T16:54:11.397Z,1.33
2018-10-11T16:56:38.457Z,1.43
2018-10-11T16:59:05.632Z,1.53
2018-10-11T17:01:32.673Z,1.30
2018-10-11T17:03:59.795Z,1.50
2018-10-11T17:06:26.796Z,1.47
2018-10-11T17:08:53.854Z,1.10
2018-10-11T17:11:21.247Z,1.20
2018-10-11T17:13:48.370Z,1.50
2018-10-11T17:16:15.384Z,1.90
2018-10-11T17:18:42.712Z,1.67
2018-10-11T17:21:09.765Z,1.40
2018-10-11T17:23:36.817Z,1.60
2018-10-11T17:26:04.564Z,1.47
2018-10-11T17:28:31.720Z,1.50
2018-10-11T17:30:58.944Z,1.10
2018-10-11T17:33:26.310Z,1.87
2018-10-11T17:35:53.352Z,1.30
2018-10-11T17:38:20.388Z,1.60
2018-10-11T17:40:47.457Z,1.50
2018-10-11T17:43:14.497Z,1.37
2018-10-11T17:45:41.553Z,1.10
2018-10-11T17:48:08.620Z,1.30
2018-10-11T17:50:35.703Z,1.40
2018-10-11T17:53:02.776Z,1.50
2018-10-11T17:55:30.138Z,1.07
2018-10-11T17:57:57.189Z,1.47
2018-10-11T18:00:24.241Z,1.57
2018-10-11T18:02:51.309Z,1.20
2018-10-11T18:05:18.632Z,1.50
2018-10-11T18:07:45.690Z,1.50
2018-10-11T18:10:12.909Z,1.93
2018-10-11T18:12:39.970Z,1.53
2018-10-11T18:15:07.073Z,1.10
2018-10-11T18:17:34.137Z,1.87
2018-10-11T18:20:01.173Z,1.47
2018-10-11T18:22:28.221Z,1.70
2018-10-11T18:24:55.556Z,1.33
2018-10-11T18:27:22.610Z,1.53
2018-10-11T18:29:49.668Z,1.30
2018-10-11T18:32:16.938Z,1.40
2018-10-11T18:34:43.992Z,2.20
2018-10-11T18:37:11.049Z,1.70
2018-10-11T18:39:38.172Z,1.50
2018-10-11T18:42:05.238Z,2.57
2018-10-11T18:44:32.304Z,1.50
2018-10-11T18:46:59.616Z,2.07
2018-10-11T18:49:26.673Z,2.00
2018-10-11T18:51:53.724Z,1.40
2018-10-11T18:54:21.077Z,1.53
2018-10-11T18:56:48.127Z,1.53
2018-10-11T18:59:15.188Z,1.60
2018-10-11T19:01:42.581Z,2.30
2018-10-11T19:04:09.760Z,1.60
2018-10-11T19:06:36.855Z,1.67
2018-10-11T19:09:05.622Z,1.80
2018-10-11T19:11:32.676Z,1.70
2018-10-11T19:13:59.728Z,1.43
2018-10-11T19:16:28.480Z,1.70
2018-10-11T19:18:55.699Z,2.10
2018-10-11T19:21:23.380Z,1.47
2018-10-11T19:23:50.464Z,1.43
2018-10-11T19:26:17.528Z,1.80
2018-10-11T19:28:44.816Z,1.93
2018-10-11T19:31:12.333Z,5.17
2018-10-11T19:33:39.685Z,3.60
2018-10-11T19:36:07.040Z,4.10
2018-10-11T19:38:34.121Z,3.13
2018-10-11T19:41:01.181Z,3.90
2018-10-11T19:43:28.272Z,3.40
2018-10-11T19:45:55.640Z,3.27
2018-10-11T19:48:22.748Z,3.00
2018-10-11T19:50:49.739Z,3.17
2018-10-11T19:53:16.808Z,3.43
2018-10-11T19:55:43.868Z,3.30
2018-10-11T19:58:10.908Z,3.47
2018-10-11T20:00:38.413Z,8.40
2018-10-11T20:03:05.469Z,7.67
2018-10-11T20:05:32.548Z,8.03
2018-10-11T20:08:00.155Z,8.80
2018-10-11T20:10:27.145Z,7.90
2018-10-11T20:18:41.808Z,7.07
2018-10-11T20:21:08.913Z,5.97
2018-10-11T20:23:35.989Z,5.10
2018-10-11T20:26:03.322Z,5.33
2018-10-11T20:28:30.350Z,5.00
2018-10-11T20:30:57.544Z,5.13
2018-10-11T20:33:24.620Z,4.47
2018-10-11T20:37:16.286Z,4.03
2018-10-11T20:39:45.652Z,3.97
2018-10-11T20:42:12.704Z,3.77
2018-10-11T20:44:39.748Z,4.53
2018-10-11T20:47:06.953Z,3.33
2018-10-11T20:49:34.056Z,4.93
2018-10-11T20:52:01.129Z,4.97
2018-10-11T20:54:28.463Z,3.33
2018-10-11T20:56:55.545Z,4.67
2018-10-11T20:59:23.044Z,3.90
2018-10-11T21:01:50.539Z,4.50
2018-10-11T21:04:17.820Z,4.63
2018-10-11T21:06:45.856Z,3.47
2018-10-11T21:09:14.596Z,3.37
2018-10-11T21:11:41.680Z,3.23
2018-10-11T21:14:10.060Z,3.73
2018-10-11T21:16:37.340Z,3.80
2018-10-11T21:19:07.137Z,3.20
2018-10-11T21:21:34.189Z,3.17
2018-10-11T21:24:01.764Z,3.83
2018-10-11T21:26:28.909Z,4.47
2018-10-11T21:28:57.115Z,2.97
2018-10-11T21:31:25.085Z,3.47
2018-10-11T21:33:52.877Z,3.63
2018-10-11T21:36:19.964Z,3.13
2018-10-11T21:38:47.177Z,2.87
2018-10-11T21:41:14.585Z,3.07
2018-10-11T21:43:41.728Z,3.07
2018-10-11T21:46:09.013Z,2.97
2018-10-11T21:48:36.169Z,2.73
2018-10-11T21:51:03.226Z,3.03
2018-10-11T21:53:30.549Z,2.97
2018-10-11T21:55:57.594Z,2.63
2018-10-11T21:58:24.653Z,2.83
2018-10-11T22:00:57.605Z,2.63
2018-10-11T22:03:24.857Z,2.93
2018-10-11T22:05:51.937Z,2.37
2018-10-11T22:08:19.057Z,2.67
2018-10-11T22:10:46.089Z,2.53
2018-10-11T22:13:13.162Z,2.63
2018-10-11T22:15:40.356Z,2.33
2018-10-11T22:18:07.433Z,2.90
2018-10-11T22:20:34.548Z,3.40
2018-10-11T22:23:04.000Z,3.30
2018-10-11T22:25:31.063Z,2.30
2018-10-11T22:27:58.438Z,2.70
2018-10-11T22:30:25.841Z,2.70
2018-10-11T22:32:53.256Z,2.93
2018-10-11T22:35:20.618Z,2.93
2018-10-11T22:37:52.323Z,2.63
2018-10-11T22:40:19.384Z,2.93
2018-10-11T22:42:46.433Z,3.30
2018-10-11T22:45:13.683Z,3.17
2018-10-11T22:47:40.778Z,3.20
2018-10-11T22:50:07.829Z,3.07
2018-10-11T22:52:34.889Z,2.63
2018-10-11T22:55:01.935Z,3.03
2018-10-11T22:57:29.069Z,2.83
2018-10-11T22:59:56.517Z,2.60
2018-10-11T23:02:23.563Z,3.00
2018-10-11T23:04:50.613Z,3.43
2018-10-11T23:07:17.677Z,2.93
2018-10-11T23:09:44.737Z,2.83
2018-10-11T23:12:11.773Z,3.00
2018-10-11T23:14:38.912Z,2.90
2018-10-11T23:17:05.896Z,2.90
2018-10-11T23:19:32.938Z,2.93
2018-10-11T23:22:00.303Z,2.97
2018-10-11T23:24:27.356Z,2.20
2018-10-11T23:26:54.593Z,2.63
2018-10-11T23:29:21.748Z,2.37
2018-10-11T23:31:48.792Z,2.00
2018-10-11T23:34:15.849Z,3.20
2018-10-11T23:36:42.917Z,2.13
2018-10-11T23:39:11.070Z,2.13
2018-10-11T23:41:38.326Z,1.87
2018-10-11T23:44:05.424Z,2.47
2018-10-11T23:46:32.476Z,2.10
2018-10-11T23:48:59.521Z,2.57
2018-10-11T23:51:26.690Z,2.47
2018-10-11T23:53:53.765Z,1.73
2018-10-11T23:56:20.808Z,1.93
2018-10-11T23:58:48.045Z,2.03
